Bloemfontein, South Africa
Current Conditions -  °F | °C
As of 9:00 PM on Wednesday 17 Dec 2014 (Local Time) from FABL Reporting Station
NA  
Wind Chill: 66°   Ceiling: NA
Heat Index: 66°   Visibility: 6mi
Dew Point: 55°   Wind: 5mph
Humidity: 68%   Direction: 310°NW
Pressure: 30.09"   Gusts: NA
Location:  29.15°S, 26.23°E
Report Text: FABL 171900Z AUTO 31004KT 9999 ////// 19/13 Q1019
Loading
Personal Weather Stations






























Interactive Weather Map New forecast layout! Learn more

10-Day Weather Forecast

Advertisements
Track Severe Weather on mobile